MacDoel, California
Current Conditions -  °F | °C
As of 3:04 AM on Friday 24 Oct 2014 (Local Time) from KSIY Reporting Station
Light Rain Light Rain  
Wind Chill: 47°   Ceiling: 5500
Heat Index: 47°   Visibility: 6mi
Dew Point: 46°   Wind: 3mph
Humidity: 97%   Direction: 30°NNE
Pressure: 30.05"   Gusts: NA
Location:  41.83°N, 122.01°W
Report Text: KSIY 241004Z AUTO 03003KT 6SM -RA BR FEW007 BKN055 OVC070 08/08 A3005 RMK AO2 P0001 T00830078
Loading
Personal Weather Stations






























Interactive Weather Map
Tropical Storm Tracking
New forecast layout! Learn more

10-Day Weather Forecast

Advertisements
Track Severe Weather on mobile